MyTimes logo

TIMES

Webb Imagery

7/02/2004
Channel Challenge
550m Swim / 2.0km Run

(Click on competitor name to view personalised results)

Name
Race #
Category
Time
(h:mm:ss)
Avg Speed
km/hr
OAll
Place
Cat
Place
HARRIS Robert#224Senior Male0:11:04 13.8 11
COOPER Brett#587Junior Male0:11:15 13.6 21
HUME Sam#87Senior Male0:11:19 13.5 32
KNOWLES Simon#194Senior Male0:11:30 13.3 43
WARE Rohan#108Senior Male0:11:47 13 54
CALDWELL Luke#82Senior Male0:12:10 12.6 65
REID Penny#355Senior Female0:12:26 12.3 71
VELLIN Marc#22Senior Male0:12:37 12.1 86
BOLTON Peter#63540-49 Male0:12:38 12.1 91
BATTYE Trent#50Senior Male0:12:39 12.1 107
GREENWOOD Jonno#227Senior Male0:12:41 12.1 118
EVANS Brad#146Senior Male0:12:44 12 129
CAMPBELL Brad#132Senior Male0:12:46 12 1310
PAGE Tiler#58940-49 Male0:12:49 11.9 142
DUNCAN Nick#125Senior Male0:12:50 11.9 1511
FLEISNER Rob#57440-49 Male0:12:54 11.9 163
HENTSHCEL Vanessa#401Senior Female0:12:55 11.8 172
BLACKWOOD Tim#198Senior Male0:13:02 11.7 1812
NOBLE James#208Senior Male0:13:07 11.7 1913
MOUNSEY Mark#53140-49 Male0:13:08 11.6 204
MC GRATH Stephanie#349Senior Female0:13:09 11.6 213
COOMBS Ben#513Junior Male0:13:11 11.6 222
BARNES Trevor#190Senior Male0:13:15 11.5 2314
WHEELER James#504Junior Male0:13:21 11.5 243
AITKEN Harry#502Junior Male0:13:29 11.3 254
YUSKO Bill#602Male 50+0:13:30 11.3 261
WACHTER Aurel#216Senior Male0:13:32 11.3 2715
LUCAS Mark#127Senior Male0:13:35 11.3 2816
REID Jason#86Senior Male0:13:38 11.2 2917
GORDON Michael#60540-49 Male0:13:38 11.2 305
MITCHELL Caitie#316Junior Female0:13:43 11.2 311
NEWTON Rodney#58840-49 Male0:13:45 11.1 326
CLARKSON Mack#103Senior Male0:13:46 11.1 3318
GRAHAME Sarah#413Junior Female0:13:47 11.1 342
LEEWORTHY Carl#54Senior Male0:13:47 11.1 3519
ZDANOWICZ Rob#109Senior Male0:13:49 11.1 3620
COWELL Darren#33Senior Male0:13:50 11.1 3721
MC HENRY David#516Junior Male0:13:51 11 385
MC CARDEL Chloe#395Senior Female0:13:52 11 394
CLEVERSLEY Daniel#126Senior Male0:13:52 11 4022
NORMAN Jeff#64740-49 Male0:13:52 11 417
GARRETT Geoff#71Senior Male0:13:54 11 4223
HUMPHREY Nicholas#21Senior Male0:13:56 11 4324
CAHILL Andrew#128Senior Male0:14:02 10.9 4425
FOWLER Jay#505Junior Male0:14:03 10.9 456
JOHNSON Glen#64440-49 Male0:14:04 10.9 468
DONOHUE Dale#623Junior Male0:14:08 10.8 477
PITTS Graeme#65840-49 Male0:14:08 10.8 489
SMITH Tegan#368Junior Female0:14:10 10.8 493
SPEED Hayden#144Senior Male0:14:11 10.8 5026
DALLINGER Chris#96Senior Male0:14:12 10.8 5127
VITIRITTI Karina#372Senior Female0:14:14 10.7 525
SORATI Ty#512Junior Male0:14:16 10.7 538
WALKER Justin#51Senior Male0:14:18 10.7 5428
SPEAKMAN David#202Senior Male0:14:22 10.6 5529
LUNN Daniel#169Senior Male0:14:31 10.5 5630
HEWETT Noel#56640-49 Male0:14:32 10.5 5710
DALLINGER Chris#99Senior Male0:14:35 10.5 5831
BOUDRIE Mike#77Senior Male0:14:37 10.5 5932
HILL Andrew#222Senior Male0:14:38 10.5 6033
MACINDOE Cameron#133Senior Male0:14:39 10.4 6134
KISS Ryan#121Senior Male0:14:39 10.4 6235
BLAKE Darren#204Senior Male0:14:41 10.4 6336
MARSHALL Luke#94Senior Male0:14:43 10.4 6437
O'DONNELL Clare#342Senior Female0:14:43 10.4 656
MC ALLISTER Danny#53040-49 Male0:14:44 10.4 6611
WINKWORTH Adrian#219Senior Male0:14:45 10.4 6738
LEGGE Andrew#25Senior Male0:14:46 10.4 6839
MANN Luke#187Senior Male0:14:49 10.3 6940
FRANKLIN Brett#159Senior Male0:14:49 10.3 7041
RITTER Andrew#31Senior Male0:14:50 10.3 7142
WARNER Don#550Male 50+0:14:50 10.3 722
GYLES Hugh#105Senior Male0:14:52 10.3 7343
MOSBAUER Rob#151Senior Male0:14:53 10.3 7444
CLOSE Jason#215Senior Male0:14:54 10.3 7545
BRAMER Paul#172Senior Male0:14:57 10.2 7646
OSMOND Travis#168Senior Male0:14:57 10.2 7747
KELLY Julian#49Senior Male0:14:58 10.2 7848
PIEPER Daniel#192Senior Male0:15:01 10.2 7949
JEFFREY Andrea#384Senior Female0:15:01 10.2 807
CLINTON Bradley#205Senior Male0:15:03 10.2 8150
CROFT Greg#62040-49 Male0:15:04 10.2 8212
BIBBY Daniel#637Junior Male0:15:04 10.2 839
HOLLAS Andrew#41Senior Male0:15:05 10.1 8451
HEALEY Jodi#439Senior Female0:15:07 10.1 858
JUDD Anna#370Senior Female0:15:09 10.1 869
KERR Lewis#506Junior Male0:15:11 10.1 8710
ALLEN Mark#55840-49 Male0:15:12 10.1 8813
SHAW Paul#148Senior Male0:15:13 10.1 8952
O'CONNER Darryn#60Senior Male0:15:13 10.1 9053
COULSON Anthony#226Senior Male0:15:14 10 9154
COYNE Gavin#178Senior Male0:15:15 10 9255
O'CONNELL Christina#383Senior Female0:15:16 10 9310
JUDD Gary#57840-49 Male0:15:19 10 9414
HARBISON Derek#58440-49 Male0:15:19 10 9515
GEARD Ben#197Senior Male0:15:22 10 9656
CLARKE Andrew#175Senior Male0:15:23 9.9 9757
LUBBERINK Herman#48Senior Male0:15:23 9.9 9858
CROWE Jessica#434Junior Female0:15:24 9.9 994
BEHRSIN Kristina#394Junior Female0:15:25 9.9 1005
SEWELL Chrisopher#503Junior Male0:15:25 9.9 10111
INNES Chris#55Senior Male0:15:26 9.9 10259
HOMER Ivan#56140-49 Male0:15:30 9.9 10316
BEHRSIN John#51940-49 Male0:15:30 9.9 10417
FISHER Kevin#57640-49 Male0:15:35 9.8 10518
MATTHEWS Jack#514Junior Male0:15:35 9.8 10612
TAYLOR Chris#93Senior Male0:15:36 9.8 10760
O'CONNELL Sarah#325Senior Female0:15:37 9.8 10811
MAIN Justin#52Senior Male0:15:39 9.8 10961
EVANS Bree#344Senior Female0:15:39 9.8 11012
FRASER Benjamin#508Junior Male0:15:40 9.8 11113
MOSSE Peter#59640-49 Male0:15:40 9.8 11219
MONAGHAN Matt#118Senior Male0:15:42 9.7 11362
VALENA Tony#582Junior Male0:15:42 9.7 11414
WATERSON David#85Senior Male0:15:43 9.7 11563
FOLLETT Matthew#123Senior Male0:15:46 9.7 11664
BENNETT Nick#43Senior Male0:15:46 9.7 11765
BUTT Chloe#313Junior Female0:15:46 9.7 1186
FRITZE Claire#339Senior Female0:15:47 9.7 11913
DAVIE Angie#30640-49 Female0:15:47 9.7 1201
MASON John#55640-49 Male0:15:48 9.7 12120
O'DEA Michael#138Senior Male0:15:49 9.7 12266
LEVERSHA David#545Male 50+0:15:50 9.7 1233
BARNES John#53240-49 Male0:15:50 9.7 12421
HAYES Albert#101Senior Male0:15:51 9.7 12567
CHURCHILL Trent#59Senior Male0:15:51 9.7 12668
BURNS Chase#140Senior Male0:15:52 9.6 12769
PHELPS Troy#223Senior Male0:15:53 9.6 12870
CLARKE Robert#176Senior Male0:15:53 9.6 12971
BURGESS Aaron#137Senior Male0:15:54 9.6 13072
MOSSE Kim#403Senior Female0:15:54 9.6 13114
NICHOLSON Jimmy#615Junior Male0:15:54 9.6 13215
BOND Marcus#166Senior Male0:15:55 9.6 13373
LEWTHWAITE James#84Senior Male0:15:55 9.6 13474
BUCKLEY Laura#422Senior Female0:15:55 9.6 13515
FOSTIN Nick#107Senior Male0:15:56 9.6 13675
HUGHES Jed#629Junior Male0:15:56 9.6 13716
CUBERES Jeoffrey#228Senior Male0:15:57 9.6 13876
FERGUSON Andrew#120Senior Male0:15:57 9.6 13977
CAMPBELL Sean#624Junior Male0:15:57 9.6 14017
RYAN Daniel#163Senior Male0:15:58 9.6 14178
PAPWORTH Troy#195Senior Male0:15:58 9.6 14279
MANNING David#149Senior Male0:15:58 9.6 14380
ROWE Claire#341Senior Female0:15:58 9.6 14416
JONES Paul#160Senior Male0:16:00 9.6 14581
IRUING Stewart#199Senior Male0:16:01 9.6 14682
RIELLY Debbie#438Senior Female0:16:02 9.5 14717
CARTER Lachlan#507Junior Male0:16:02 9.5 14818
DAVIES Clive#630Male 50+0:16:03 9.5 1494
MONAHAN James#111Senior Male0:16:05 9.5 15083
DALLINGER Dean#98Senior Male0:16:09 9.5 15184
GROENVELD Sander#38Senior Male0:16:10 9.5 15285
SMITH John#575Male 50+0:16:10 9.5 1535
BILSTON David#217Senior Male0:16:12 9.4 15486
O'SHEA Kelly#319Junior Female0:16:13 9.4 1557
MORRISON Adam#218Senior Male0:16:14 9.4 15687
TREVENA Martin#81Senior Male0:16:14 9.4 15788
SATTERLEY Paul#58Senior Male0:16:15 9.4 15889
KISS Pam#37840-49 Female0:16:15 9.4 1592
RINGROSE Paul#541Male 50+0:16:15 9.4 1606
FLEISNER Paul#542Male 50+0:16:15 9.4 1617
FERGUSON Zoe#377Senior Female0:16:16 9.4 16218
PARSONS Donal#29Senior Male0:16:17 9.4 16390
YOUNG Dave#74Senior Male0:16:17 9.4 16491
WARD Graeme#60340-49 Male0:16:18 9.4 16522
DRUMMOND Matthew#211Senior Male0:16:19 9.4 16692
VALENA Rex#583Male 50+0:16:22 9.3 1678
SHEEDY Anthony#185Senior Male0:16:23 9.3 16893
SANDO Peter#69Senior Male0:16:25 9.3 16994
PENMAN Neil#63140-49 Male0:16:25 9.3 17023
CAMPBELL Courtney#173Senior Male0:16:27 9.3 17195
NEEDHAM Brett#131Senior Male0:16:27 9.3 17296
MC MAHON Kieren#68Senior Male0:16:28 9.3 17397
OLIVER Scott#230Senior Male0:16:29 9.3 17498
CAPLE Sally#358Junior Female0:16:29 9.3 1758
CARTER Dean#549Male 50+0:16:30 9.3 1769
THURGOOD Neville#27Senior Male0:16:31 9.3 17799
SUNDERLAND Peter#58040-49 Male0:16:31 9.3 17824
DAFF Geoff#564Male 50+0:16:31 9.3 17910
WARDROP Grant#76Senior Male0:16:32 9.3 180100
HORNSBY Tony#97Senior Male0:16:33 9.2 181101
STAPLETON Travis#134Senior Male0:16:33 9.2 182102
HILL Jessica#352Junior Female0:16:33 9.2 1839
CANN Lara#329Senior Female0:16:34 9.2 18419
MANNING John#95Senior Male0:16:36 9.2 185103
HUTCHISON Kylie#404Senior Female0:16:36 9.2 18620
MC FEE Andy#181Senior Male0:16:37 9.2 187104
CHAPMAN Rob#40Senior Male0:16:37 9.2 188105
GHATTAS Aaron#604Junior Male0:16:37 9.2 18919
WONNACOTT Lee#188Senior Male0:16:38 9.2 190106
NAISMITH Darren#170Senior Male0:16:38 9.2 191107
LENNE Heath#102Senior Male0:16:39 9.2 192108
CLARKE Josh#601Junior Male0:16:39 9.2 19320
EISEN Nat#515Junior Male0:16:42 9.2 19421
STAPLETON Peter#83Senior Male0:16:43 9.2 195109
KEADY Richard#642Male 50+0:16:43 9.2 19611
LASCALA Nino#167Senior Male0:16:44 9.1 197110
LEYS Ryan#201Senior Male0:16:47 9.1 198111
JALANDO-ON Rio#182Senior Male0:16:48 9.1 199112
MUMMERY Glenn#158Senior Male0:16:48 9.1 200113
SHADBOLT Ian#52240-49 Male0:16:51 9.1 20125
HILL Stuart#622Junior Male0:16:52 9.1 20222
LIMB Steve#162Senior Male0:16:53 9.1 203114
O'HEA Esther#425Junior Female0:16:54 9.1 20410
WHITE Sharon#363Senior Female0:16:54 9.1 20521
CONNELL Michael#61440-49 Male0:16:54 9.1 20626
WYNNE Simon#122Senior Male0:16:56 9 207115
LOWE Darren#53Senior Male0:16:57 9 208116
MACLAREN Lynne#427Senior Female0:16:57 9 20922
ORSINI Raff#60040-49 Male0:16:57 9 21027
FLEISNER Benjamin#110Senior Male0:16:58 9 211117
CAMERON Jane#36240-49 Female0:16:58 9 2123
CRAIG Mitchell#186Senior Male0:16:59 9 213118
TANCHOFF Brian#59740-49 Male0:16:59 9 21428
WALKER Paul#193Senior Male0:17:00 9 215119
WILLIAMS Glyn#139Senior Male0:17:00 9 216120
THERIAULT David#543Male 50+0:17:00 9 21712
KRUGER Aaron#221Senior Male0:17:01 9 218121
HOPKINS Brad#92Senior Male0:17:03 9 219122
MUIR Ian#645Male 50+0:17:03 9 22013
MURLEY Phil#135Senior Male0:17:04 9 221123
SEXTON Andy#46Senior Male0:17:04 9 222124
DALLINGER Brian#551Male 50+0:17:04 9 22314
POULTON Andrew#161Senior Male0:17:05 9 224125
STEER Justin#156Senior Male0:17:08 8.9 225126
SMITH Andrew#63Senior Male0:17:09 8.9 226127
KEOGH Peter#213Senior Male0:17:11 8.9 227128
JOHNSON Alexandra#432Senior Female0:17:11 8.9 22823
COLE Nicholas#183Senior Male0:17:14 8.9 229129
MATTHEWS Robert#552Male 50+0:17:14 8.9 23015
MULLER Rodney#23Senior Male0:17:16 8.9 231130
SUTHERLAND Michael#152Senior Male0:17:16 8.9 232131
PEWTRESS Stephen#64Senior Male0:17:16 8.9 233132
DE VAS Philip#119Senior Male0:17:21 8.8 234133
AARONS Craig#52140-49 Male0:17:22 8.8 23529
SMITH Matthew#511Senior Male0:17:23 8.8 236134
MC NALLY Adam#39Senior Male0:17:23 8.8 237135
FOSTIN Bianca#374Senior Female0:17:24 8.8 23824
CHAMERLAIN Gary#65Senior Male0:17:25 8.8 239136
LEDDIN Peter#64840-49 Male0:17:25 8.8 24030
HOOIVELD Dennis#225Senior Male0:17:29 8.8 241137
WOOD Anthony#73Senior Male0:17:30 8.7 242138
NICHOLSON Peter#581Male 50+0:17:30 8.7 24316
WALLS Haydon#117Senior Male0:17:31 8.7 244139
STEINICKE Angus#153Senior Male0:17:31 8.7 245140
CARROLL Steven#212Senior Male0:17:31 8.7 246141
CUTHBERTON Diddy#388Senior Female0:17:31 8.7 24725
O'RYAN Mick#544Male 50+0:17:31 8.7 24817
BOLTON Mitchell#634Junior Male0:17:31 8.7 24923
WILLIAMSON David#157Senior Male0:17:32 8.7 250142
MULLER Dale#24Senior Male0:17:33 8.7 251143
TELBURN Andrew#45Senior Male0:17:33 8.7 252144
MOUNTER Brent#66Senior Male0:17:37 8.7 253145
ROOKS David#34Senior Male0:17:37 8.7 254146
ILSLEY Ross#60940-49 Male0:17:37 8.7 25531
MARTIN Peter#52840-49 Male0:17:37 8.7 25632
WHITE Fiona#364Senior Female0:17:38 8.7 25726
STEWART Andrew#200Senior Male0:17:39 8.7 258147
EVANS Paul#141Senior Male0:17:40 8.7 259148
SKIDMORE Matt#590Junior Male0:17:40 8.7 26024
PEARCE Brad#104Senior Male0:17:41 8.7 261149
WISHART Amy#347Senior Female0:17:41 8.7 26227
CLOSE Danielle#385Senior Female0:17:41 8.7 26328
DE GROOT Roger#177Senior Male0:17:42 8.6 264150
HUGHES Caitlin#423Junior Female0:17:42 8.6 26511
FOUNTAIN Patrick#510Junior Male0:17:42 8.6 26625
KELSEY David#136Senior Male0:17:43 8.6 267151
SKIDMORE Peter#591Male 50+0:17:43 8.6 26818
KIRK James#657Junior Male0:17:43 8.6 26926
LEVERSHA Lyn#311Female 50+0:17:46 8.6 2701
HENKE David#618Male 50+0:17:46 8.6 27119
FETTERPLACE David#547Male 50+0:17:46 8.6 27220
HAYES Frank#639Male 50+0:17:47 8.6 27321
MUJICA Mirko#61Senior Male0:17:48 8.6 274152
DRISCOLL Melanie#343Senior Female0:17:48 8.6 27529
PRICE Brode#573Junior Male0:17:48 8.6 27627
HUNT Greg#32Senior Male0:17:49 8.6 277153
O'SHANNESSY Peter#62640-49 Male0:17:49 8.6 27833
DARROCH David#106Senior Male0:17:50 8.6 279154
MONAHAN Rob#113Senior Male0:17:50 8.6 280155
STOOPMAN Jo#396Senior Female0:17:53 8.6 28130
MARTIN Brian#52340-49 Male0:17:53 8.6 28234
MANNING Simon#56540-49 Male0:17:54 8.5 28335
JAMIESON Mark#57940-49 Male0:17:56 8.5 28436
ELLIS Michael#607Male 50+0:17:59 8.5 28522
PLATT Wayne#72Senior Male0:18:00 8.5 286156
WATKINS Anthony#65640-49 Male0:18:03 8.5 28737
TROJAN Nadia#323Senior Female0:18:04 8.5 28831
SEWELL Geoffrey#546Male 50+0:18:04 8.5 28923
MORGAN Natalie#428Senior Female0:18:05 8.5 29032
GODING Lindsay#165Senior Male0:18:06 8.5 291157
LITTLE Nathan#174Senior Male0:18:07 8.4 292158
WILLIMIAMS Ian#56Senior Male0:18:07 8.4 293159
PARKER Glen#599Junior Male0:18:08 8.4 29428
FOUNTAIN David#509Junior Male0:18:09 8.4 29529
DIXON Michael#56240-49 Male0:18:10 8.4 29638
SMITH Paul#559Male 50+0:18:11 8.4 29724
VISAPAA Andre#116Senior Male0:18:12 8.4 298160
SHANKS Lloyd#75Senior Male0:18:13 8.4 299161
FANNING David#207Senior Male0:18:14 8.4 300162
WILKINSON Michael#145Senior Male0:18:14 8.4 301163
CANDIAN Tara#380Senior Female0:18:14 8.4 30233
MILLER Lisa#37940-49 Female0:18:18 8.4 3034
DEANS Ian#62740-49 Male0:18:19 8.4 30439
ADNAM Sian#30140-49 Female0:18:20 8.3 3055
DRISCOLL Darren#229Senior Male0:18:21 8.3 306164
LYFORD Mark#52740-49 Male0:18:22 8.3 30740
EDWARDS Joffa#112Senior Male0:18:23 8.3 308165
PETRUCCI Gina#410Senior Female0:18:25 8.3 30934
ANDERSON Garry#555Male 50+0:18:25 8.3 31025
EVANS Kym#402Senior Female0:18:27 8.3 31135
PROITSIS Michael#42Senior Male0:18:28 8.3 312166
JESTER Peita#332Senior Female0:18:29 8.3 31336
HOSKING Bill#653Junior Male0:18:29 8.3 31430
URBANDO Steven#189Senior Male0:18:30 8.3 315167
ADES Paul#61040-49 Male0:18:30 8.3 31641
ADAMS Simon#59840-49 Male0:18:30 8.3 31742
DEVINE Allison#30240-49 Female0:18:31 8.3 3186
HOOPER Mick#52440-49 Male0:18:32 8.3 31943
BOURKE Peter#80Senior Male0:18:33 8.2 320168
MERTENS Jennifer#317Junior Female0:18:33 8.2 32112
PORTCH Deane#52540-49 Male0:18:34 8.2 32244
BRIGLIA Tony#628Male 50+0:18:34 8.2 32326
FENECH Shane#100Senior Male0:18:35 8.2 324169
RYAN Chris#91Senior Male0:18:36 8.2 325170
ALLEN Stephanie#360Senior Female0:18:37 8.2 32637
HALL Kerri#366Senior Female0:18:37 8.2 32738
MORLEY Jenny#393Senior Female0:18:38 8.2 32839
MARSHALL Douglas#593Male 50+0:18:38 8.2 32927
MURLEY Nikki#387Senior Female0:18:39 8.2 33040
MUJICA Venessa#346Senior Female0:18:40 8.2 33141
HOPKINS Barry#56040-49 Male0:18:40 8.2 33245
HOPKINS Mark#63840-49 Male0:18:42 8.2 33346
RANDALL Michael#501Junior Male0:18:42 8.2 33431
MEAD Paul#65940-49 Male0:18:43 8.2 33547
SMITH Dennis#643Male 50+0:18:43 8.2 33628
MILLER Brooke#433Senior Female0:18:46 8.2 33742
KING Adrian#155Senior Male0:18:47 8.1 338171
MC NEIL Brett#179Senior Male0:18:47 8.1 339172
JAMES David#554Male 50+0:18:48 8.1 34029
BRACKEN Rory#196Senior Male0:18:50 8.1 341173
ZIMMERMAN Kirrily#426Senior Female0:18:50 8.1 34243
DALL Matthew#129Senior Male0:18:51 8.1 343174
SMYTH John#191Senior Male0:18:51 8.1 344175
RIDDELL Amanda#376Senior Female0:18:51 8.1 34544
SHERRARD Philip#154Senior Male0:18:53 8.1 346176
LAGOS Helen#390Senior Female0:18:53 8.1 34745
RICHENS Michelle#430Senior Female0:18:53 8.1 34846
MC GREGOR Shannon#348Senior Female0:18:55 8.1 34947
SHEPPARD Sam#210Senior Male0:18:56 8.1 350177
MUNNINK Daniel#621Junior Male0:18:58 8.1 35132
LYFORD Kimberley#318Junior Female0:18:59 8.1 35213
RYAN Cherie#411Senior Female0:19:03 8 35348
DEVLYN Shane#53440-49 Male0:19:05 8 35448
COMERFORD Peter#64640-49 Male0:19:07 8 35549
CURRIE Brenden#52940-49 Male0:19:08 8 35650
HARMER Darren#142Senior Male0:19:11 8 357178
PASTOR Nathan#35Senior Male0:19:12 8 358179
FISHER Simon#147Senior Male0:19:13 8 359180
STELLA Luke#150Senior Male0:19:14 8 360181
ALLEN Brooke#345Senior Female0:19:15 7.9 36149
FITZGERALD Amy#405Senior Female0:19:16 7.9 36250
CREAN Peter#594Male 50+0:19:18 7.9 36330
KIMBER Chris#65540-49 Male0:19:19 7.9 36451
HUGHES Bronwyn#42440-49 Female0:19:20 7.9 3657
ESNOUF John#608Male 50+0:19:20 7.9 36631
LEECH Mark#90Senior Male0:19:21 7.9 367182
TROJAN Lara#324Senior Female0:19:21 7.9 36851
BROWN Amy#419Senior Female0:19:22 7.9 36952
SMITH Ken#53540-49 Male0:19:24 7.9 37052
FRANGALAS Gary#28Senior Male0:19:25 7.9 371183
CAPLE David#577Male 50+0:19:26 7.9 37232
WARD Frank#539Male 50+0:19:28 7.9 37333
HIND Philip#56840-49 Male0:19:30 7.8 37453
SYME Michael#61740-49 Male0:19:30 7.8 37554
LANCASHIRE Terry#616Male 50+0:19:36 7.8 37634
JOHNSTON Brian#65140-49 Male0:19:38 7.8 37755
PHILIPS Steven#88Senior Male0:19:42 7.8 378184
HUSSEY Mick#62540-49 Male0:19:42 7.8 37956
THORN Lyndal#357Senior Female0:19:44 7.8 38053
CHASTON Peter#56340-49 Male0:19:45 7.7 38157
HARPER Karen#331Senior Female0:19:46 7.7 38254
ADAMS Murray#592Male 50+0:19:46 7.7 38335
O'HARA Cameron#67Senior Male0:19:47 7.7 384185
EVANS Claire#382Senior Female0:19:47 7.7 38555
MORRISON Kerry#36540-49 Female0:19:48 7.7 3868
O'KEEFE Louise#337Senior Female0:19:50 7.7 38756
NICHOLSON Mary#421Female 50+0:19:51 7.7 3882
MITCHELL Ian#89Senior Male0:19:53 7.7 389186
TANZEN Lauren#340Senior Female0:19:53 7.7 39057
BOULTON Mark#231Senior Male0:19:56 7.7 391187
CRAIG Lucas#180Senior Male0:19:57 7.7 392188
HANNAN Graeme#56740-49 Male0:19:57 7.7 39358
BUTLER Brenden#553Male 50+0:19:59 7.7 39436
EVERS Helen#336Senior Female0:20:00 7.6 39558
BURTON Bradley#214Senior Male0:20:02 7.6 396189
EVERS Rylie#44Senior Male0:20:04 7.6 397190
WONNACOTT Brian#61940-49 Male0:20:04 7.6 39859
FRASER Elise#335Senior Female0:20:07 7.6 39959
WRIGHT Phil#649Male 50+0:20:07 7.6 40037
JONES Penny#315Junior Female0:20:08 7.6 40114
WOODWARD Andrew#184Senior Male0:20:09 7.6 402191
EVERETT Glen#53340-49 Male0:20:09 7.6 40360
MEAHGER Kerryn#314Junior Female0:20:11 7.6 40415
HALLIDAY Craig#65040-49 Male0:20:12 7.6 40561
ABLETT Zachary#143Senior Male0:20:13 7.6 406192
CUTHBERTSON Stephanie#416Senior Female0:20:14 7.6 40760
DOUGHERTY Terri#57240-49 Male0:20:14 7.6 40862
CARIAL Joe#57140-49 Male0:20:15 7.6 40963
FLETCHER Michael#51740-49 Male0:20:16 7.5 41064
ASTON Danielle#442Junior Female0:20:17 7.5 41116
CANDIAN Haylie#381Senior Female0:20:21 7.5 41261
JONAS Pam#30440-49 Female0:20:21 7.5 4139
HOSKING Robert#654Male 50+0:20:21 7.5 41438
ANTHONY Michael#26Senior Male0:20:22 7.5 415193
STEPHENS Ron#557Male 50+0:20:22 7.5 41639
JOHNSON Gillian#35340-49 Female0:20:24 7.5 41710
GEDDES Belinda#361Senior Female0:20:34 7.4 41862
O'DONOHUE Mark#61240-49 Male0:20:38 7.4 41965
CARSON Angie#321Senior Female0:20:40 7.4 42063
PATKIN Kate#407Senior Female0:20:42 7.4 42164
SMITH Peter#613Male 50+0:20:46 7.4 42240
ROBINSON Murray#53640-49 Male0:20:46 7.4 42366
KENNEDY John#606Male 50+0:20:47 7.4 42441
KNIGHT Hayley#322Senior Female0:20:49 7.3 42565
BROWN Jennifer#436Senior Female0:20:53 7.3 42666
O'SULLIVAN Janine#444Senior Female0:20:54 7.3 42767
GOOEY Janette#312Female 50+0:20:57 7.3 4283
EVANS Phillip#62Senior Male0:21:01 7.3 429194
KELLY John#52040-49 Male0:21:02 7.3 43067
WEBSTER Lisa#443Senior Female0:21:04 7.3 43168
MASON Darryl#70Senior Male0:21:06 7.3 432195
SZARASZEK Megan#389Senior Female0:21:07 7.2 43369
ENTER Alice#435Junior Female0:21:08 7.2 43417
KEATING Liam#57Senior Male0:21:10 7.2 435196
MILLER Claire#43140-49 Female0:21:16 7.2 43611
WRIGHT Bruce#37Senior Male0:21:22 7.2 437197
KEE Kevin#124Senior Male0:21:22 7.2 438198
FERRON Gerard#51840-49 Male0:21:23 7.2 43968
WALKER Christine#307Female 50+0:21:28 7.1 4404
FRANCIS Lucy#330Senior Female0:21:28 7.1 44170
FLAHERTY Shona#371Senior Female0:21:30 7.1 44271
MOTTON Cobey#412Senior Female0:21:34 7.1 44372
ROOMS Metani#414Senior Female0:21:35 7.1 44473
MANDALESON Avanthi#406Senior Female0:21:35 7.1 44574
WIGNELL Kelly#429Senior Female0:21:37 7.1 44675
SCHLITZ Jacqui#367Senior Female0:21:40 7.1 44776
PAINTER Marcelle#30340-49 Female0:21:41 7.1 44812
WOOLCOCK Ruth#369Female 50+0:21:45 7 4495
GLENN Ian#52640-49 Male0:21:45 7 45069
FAZIO Elissa#326Senior Female0:21:46 7 45177
O'DWYER Marie#328Senior Female0:21:46 7 45278
LOWE Sally#399Senior Female0:21:49 7 45379
STEELE Ken#64040-49 Male0:21:49 7 45470
MC ALLISTER Gerard#164Senior Male0:21:50 7 455199
FORRESTER Jade#420Senior Female0:21:52 7 45680
LUMB Katy#356Senior Female0:21:52 7 45781
COLEMAN Mark#63340-49 Male0:22:03 6.9 45871
PULLING Tim#47Senior Male0:22:11 6.9 459200
HIBBLE Jenny#35140-49 Female0:22:13 6.9 46013
GEDDES Nicole#359Senior Female0:22:16 6.9 46182
DEWHURST Kim#354Senior Female0:22:24 6.8 46283
HAYES Ronald#206Senior Male0:22:34 6.8 463201
GOULD Sue#375Female 50+0:22:37 6.8 4646
GRIFFITHS Ian#58640-49 Male0:22:43 6.7 46572
LENZ Christophe#58540-49 Male0:22:44 6.7 46673
BROWN Karen#415Senior Female0:22:58 6.7 46784
KNIGHT Stephen#63240-49 Male0:23:07 6.6 46874
COLDREY Travis#171Senior Male0:23:11 6.6 469202
KEWMING Robyn#41840-49 Female0:23:23 6.5 47014
PEARLE Stacy#392Senior Female0:23:29 6.5 47185
KERR Robert#61140-49 Male0:23:34 6.5 47275
FORRESTER Malanie#417Senior Female0:23:37 6.5 47386
LINSDELL-EDWARD Catherine#39740-49 Female0:23:42 6.5 47415
STEER Prue#409Senior Female0:23:49 6.4 47587
OLSSON Paula#400Senior Female0:23:57 6.4 47688
KENNEDY Tracy#386Senior Female0:23:57 6.4 47789
FOSS Shane#220Senior Male0:24:01 6.4 478203
BOXER Bruce#537Male 50+0:24:07 6.3 47942
REEK George#570Male 50+0:24:13 6.3 48043
REDFERN Lloyd#538Male 50+0:24:14 6.3 48144
VEENSTRA Ric#115Senior Male0:24:39 6.2 482204
PEARCE Jo#373Senior Female0:24:40 6.2 48390
WEIR Turtle#569Male 50+0:24:42 6.2 48445
FANNING Joanne#440Senior Female0:24:48 6.2 48591
WING Rebecca#334Senior Female0:24:52 6.2 48692
STEVENS Kevin#548Male 50+0:24:54 6.1 48746
ENDICOTT Jorja#333Senior Female0:24:55 6.1 48893
PEARCE Nardeen#391Senior Female0:24:57 6.1 48994
BEWLEY Rikki#309Female 50+0:25:21 6 4907
BROWN Vudith#398Female 50+0:25:24 6 4918
CRUICKSHANK Glenn#114Senior Male0:25:43 5.9 492205
JARISHIDI Ali#203Senior Male0:25:46 5.9 493206
PETERS Derek#130Senior Male0:26:28 5.8 494207
KONTEGOURIS Earlene#308Female 50+0:26:46 5.7 4959
BUCKLEY Patrick#65240-49 Male0:26:49 5.7 49676
ZACHARIAH Paul#595Male 50+0:27:25 5.6 49747
JAMISON Frances#437Female 50+0:31:33 4.8 49810
MITCHELL Jill#310Female 50+0:38:09 4 49911
LORD Anne#30540-49 Female0:13:23 11.4DCO0
MARKOPOULOS George#232Senior Male0:00:00 0DNF0